sensor_id;sensor_type;location;lat;lon;timestamp;temperature;humidity
17827;DHT22;9038;48.208;16.308;2023-02-15T00:00:05;6.60;67.50
17827;DHT22;9038;48.208;16.308;2023-02-15T00:02:08;6.60;67.50
17827;DHT22;9038;48.208;16.308;2023-02-15T00:04:11;6.50;67.50
17827;DHT22;9038;48.208;16.308;2023-02-15T00:06:13;6.60;67.50
17827;DHT22;9038;48.208;16.308;2023-02-15T00:08:15;6.50;67.40
17827;DHT22;9038;48.208;16.308;2023-02-15T00:10:17;6.40;67.40
17827;DHT22;9038;48.208;16.308;2023-02-15T00:12:19;6.30;67.90
17827;DHT22;9038;48.208;16.308;2023-02-15T00:14:22;6.20;68.40
17827;DHT22;9038;48.208;16.308;2023-02-15T00:16:24;6.10;68.60
17827;DHT22;9038;48.208;16.308;2023-02-15T00:18:26;6.00;68.80
17827;DHT22;9038;48.208;16.308;2023-02-15T00:20:28;6.00;69.10
17827;DHT22;9038;48.208;16.308;2023-02-15T00:22:30;6.00;69.10
17827;DHT22;9038;48.208;16.308;2023-02-15T00:24:31;6.00;69.10
17827;DHT22;9038;48.208;16.308;2023-02-15T00:26:33;6.10;69.20
17827;DHT22;9038;48.208;16.308;2023-02-15T00:28:35;6.10;68.90
17827;DHT22;9038;48.208;16.308;2023-02-15T00:30:39;6.10;68.80
17827;DHT22;9038;48.208;16.308;2023-02-15T00:32:40;6.10;68.50
17827;DHT22;9038;48.208;16.308;2023-02-15T00:34:42;6.20;68.70
17827;DHT22;9038;48.208;16.308;2023-02-15T00:36:44;6.20;68.40
17827;DHT22;9038;48.208;16.308;2023-02-15T00:38:46;6.20;68.50
17827;DHT22;9038;48.208;16.308;2023-02-15T00:40:51;6.20;68.50
17827;DHT22;9038;48.208;16.308;2023-02-15T00:42:53;6.30;68.60
17827;DHT22;9038;48.208;16.308;2023-02-15T00:44:54;6.20;68.50
17827;DHT22;9038;48.208;16.308;2023-02-15T00:46:58;6.20;68.50
17827;DHT22;9038;48.208;16.308;2023-02-15T00:48:59;6.20;68.50
17827;DHT22;9038;48.208;16.308;2023-02-15T00:51:01;6.20;68.30
17827;DHT22;9038;48.208;16.308;2023-02-15T00:53:03;6.30;68.40
17827;DHT22;9038;48.208;16.308;2023-02-15T00:55:05;6.30;68.20
17827;DHT22;9038;48.208;16.308;2023-02-15T00:57:07;6.30;68.10
17827;DHT22;9038;48.208;16.308;2023-02-15T00:59:08;6.30;68.20
17827;DHT22;9038;48.208;16.308;2023-02-15T01:01:11;6.30;68.00
17827;DHT22;9038;48.208;16.308;2023-02-15T01:03:15;6.20;68.00
17827;DHT22;9038;48.208;16.308;2023-02-15T01:05:17;6.20;68.20
17827;DHT22;9038;48.208;16.308;2023-02-15T01:07:19;6.20;68.20
17827;DHT22;9038;48.208;16.308;2023-02-15T01:09:21;6.20;68.50
17827;DHT22;9038;48.208;16.308;2023-02-15T01:11:23;6.20;68.50
17827;DHT22;9038;48.208;16.308;2023-02-15T01:13:25;6.20;68.40
17827;DHT22;9038;48.208;16.308;2023-02-15T01:15:27;6.20;68.20
17827;DHT22;9038;48.208;16.308;2023-02-15T01:17:29;6.20;67.90
17827;DHT22;9038;48.208;16.308;2023-02-15T01:19:33;6.10;68.10
17827;DHT22;9038;48.208;16.308;2023-02-15T01:21:35;5.90;68.50
17827;DHT22;9038;48.208;16.308;2023-02-15T01:23:37;5.80;68.80
17827;DHT22;9038;48.208;16.308;2023-02-15T01:25:39;5.80;69.30
17827;DHT22;9038;48.208;16.308;2023-02-15T01:27:40;5.80;69.20
17827;DHT22;9038;48.208;16.308;2023-02-15T01:29:43;5.80;69.20
17827;DHT22;9038;48.208;16.308;2023-02-15T01:31:45;5.90;69.50
17827;DHT22;9038;48.208;16.308;2023-02-15T01:33:47;6.00;69.20
17827;DHT22;9038;48.208;16.308;2023-02-15T01:35:52;6.00;68.80
17827;DHT22;9038;48.208;16.308;2023-02-15T01:38:03;6.00;68.70
17827;DHT22;9038;48.208;16.308;2023-02-15T01:40:07;6.00;68.70
17827;DHT22;9038;48.208;16.308;2023-02-15T01:42:10;6.00;68.70
17827;DHT22;9038;48.208;16.308;2023-02-15T01:46:32;6.10;68.80
17827;DHT22;9038;48.208;16.308;2023-02-15T01:48:35;6.10;68.60
17827;DHT22;9038;48.208;16.308;2023-02-15T01:50:40;6.10;68.50
17827;DHT22;9038;48.208;16.308;2023-02-15T01:52:50;6.10;68.50
17827;DHT22;9038;48.208;16.308;2023-02-15T01:54:53;6.10;68.40
17827;DHT22;9038;48.208;16.308;2023-02-15T01:56:56;6.00;68.50
17827;DHT22;9038;48.208;16.308;2023-02-15T01:59:00;6.00;68.50
17827;DHT22;9038;48.208;16.308;2023-02-15T02:01:04;6.00;69.30
17827;DHT22;9038;48.208;16.308;2023-02-15T02:03:08;6.00;68.60
17827;DHT22;9038;48.208;16.308;2023-02-15T02:05:10;5.90;68.60
17827;DHT22;9038;48.208;16.308;2023-02-15T02:07:13;6.00;68.70
17827;DHT22;9038;48.208;16.308;2023-02-15T02:09:17;5.90;68.60
17827;DHT22;9038;48.208;16.308;2023-02-15T02:11:18;5.90;68.50
17827;DHT22;9038;48.208;16.308;2023-02-15T02:13:20;5.80;68.60
17827;DHT22;9038;48.208;16.308;2023-02-15T02:15:23;5.80;69.00
17827;DHT22;9038;48.208;16.308;2023-02-15T02:17:28;5.80;69.20
17827;DHT22;9038;48.208;16.308;2023-02-15T02:22:07;5.60;69.50
17827;DHT22;9038;48.208;16.308;2023-02-15T02:24:27;5.50;69.90
17827;DHT22;9038;48.208;16.308;2023-02-15T02:29:15;5.40;70.80
17827;DHT22;9038;48.208;16.308;2023-02-15T02:31:25;5.40;71.00
17827;DHT22;9038;48.208;16.308;2023-02-15T02:33:33;5.50;71.10
17827;DHT22;9038;48.208;16.308;2023-02-15T02:35:43;5.40;70.90
17827;DHT22;9038;48.208;16.308;2023-02-15T02:37:48;5.50;70.80
17827;DHT22;9038;48.208;16.308;2023-02-15T02:39:54;5.50;70.80
17827;DHT22;9038;48.208;16.308;2023-02-15T02:41:59;5.50;71.00
17827;DHT22;9038;48.208;16.308;2023-02-15T02:44:05;5.40;70.90
17827;DHT22;9038;48.208;16.308;2023-02-15T02:46:10;5.40;71.00
17827;DHT22;9038;48.208;16.308;2023-02-15T02:48:15;5.40;71.80
17827;DHT22;9038;48.208;16.308;2023-02-15T02:50:21;5.40;71.20
17827;DHT22;9038;48.208;16.308;2023-02-15T02:52:34;5.40;71.00
17827;DHT22;9038;48.208;16.308;2023-02-15T02:54:36;5.40;70.80
17827;DHT22;9038;48.208;16.308;2023-02-15T02:56:39;5.50;70.80
17827;DHT22;9038;48.208;16.308;2023-02-15T02:58:44;5.50;70.60
17827;DHT22;9038;48.208;16.308;2023-02-15T03:00:49;5.50;70.40
17827;DHT22;9038;48.208;16.308;2023-02-15T03:02:53;5.60;70.50
17827;DHT22;9038;48.208;16.308;2023-02-15T03:04:59;5.60;69.90
17827;DHT22;9038;48.208;16.308;2023-02-15T03:07:05;5.50;69.60
17827;DHT22;9038;48.208;16.308;2023-02-15T03:09:09;5.50;69.90
17827;DHT22;9038;48.208;16.308;2023-02-15T03:11:14;5.50;70.10
17827;DHT22;9038;48.208;16.308;2023-02-15T03:13:16;5.50;70.30
17827;DHT22;9038;48.208;16.308;2023-02-15T03:15:19;5.50;70.30
17827;DHT22;9038;48.208;16.308;2023-02-15T03:17:22;5.50;70.30
17827;DHT22;9038;48.208;16.308;2023-02-15T03:19:23;5.50;70.30
17827;DHT22;9038;48.208;16.308;2023-02-15T03:21:33;5.50;70.30
17827;DHT22;9038;48.208;16.308;2023-02-15T03:23:37;5.50;69.50
17827;DHT22;9038;48.208;16.308;2023-02-15T03:25:40;5.50;69.50
17827;DHT22;9038;48.208;16.308;2023-02-15T03:27:44;5.60;69.50
17827;DHT22;9038;48.208;16.308;2023-02-15T03:29:48;5.60;69.60
17827;DHT22;9038;48.208;16.308;2023-02-15T03:31:52;5.60;69.50
17827;DHT22;9038;48.208;16.308;2023-02-15T03:33:55;5.60;69.60
17827;DHT22;9038;48.208;16.308;2023-02-15T03:36:01;5.60;69.50
17827;DHT22;9038;48.208;16.308;2023-02-15T03:38:03;5.50;69.50
17827;DHT22;9038;48.208;16.308;2023-02-15T03:40:09;5.50;69.90
17827;DHT22;9038;48.208;16.308;2023-02-15T03:42:30;5.40;70.30
17827;DHT22;9038;48.208;16.308;2023-02-15T03:44:41;5.30;70.70
17827;DHT22;9038;48.208;16.308;2023-02-15T03:46:46;5.20;70.90
17827;DHT22;9038;48.208;16.308;2023-02-15T03:48:51;5.20;71.20
17827;DHT22;9038;48.208;16.308;2023-02-15T03:50:53;5.20;70.90
17827;DHT22;9038;48.208;16.308;2023-02-15T03:53:15;5.20;70.90
17827;DHT22;9038;48.208;16.308;2023-02-15T03:55:18;5.30;71.00
17827;DHT22;9038;48.208;16.308;2023-02-15T03:57:20;5.40;70.90
17827;DHT22;9038;48.208;16.308;2023-02-15T03:59:39;5.40;70.80
17827;DHT22;9038;48.208;16.308;2023-02-15T04:02:02;5.50;70.30
17827;DHT22;9038;48.208;16.308;2023-02-15T04:04:07;5.50;70.30
17827;DHT22;9038;48.208;16.308;2023-02-15T04:06:10;5.50;70.20
17827;DHT22;9038;48.208;16.308;2023-02-15T04:08:12;5.50;70.20
17827;DHT22;9038;48.208;16.308;2023-02-15T04:10:14;5.50;70.40
17827;DHT22;9038;48.208;16.308;2023-02-15T04:12:34;5.50;70.40
17827;DHT22;9038;48.208;16.308;2023-02-15T04:14:36;5.50;70.90
17827;DHT22;9038;48.208;16.308;2023-02-15T04:16:55;5.50;70.00
17827;DHT22;9038;48.208;16.308;2023-02-15T04:18:57;5.50;70.20
17827;DHT22;9038;48.208;16.308;2023-02-15T04:21:16;5.50;70.30
17827;DHT22;9038;48.208;16.308;2023-02-15T04:23:35;5.50;70.60
17827;DHT22;9038;48.208;16.308;2023-02-15T04:25:54;5.50;70.40
17827;DHT22;9038;48.208;16.308;2023-02-15T04:27:57;5.50;71.30
17827;DHT22;9038;48.208;16.308;2023-02-15T04:29:59;5.50;70.50
17827;DHT22;9038;48.208;16.308;2023-02-15T04:32:01;5.50;70.60
17827;DHT22;9038;48.208;16.308;2023-02-15T04:34:03;5.50;70.50
17827;DHT22;9038;48.208;16.308;2023-02-15T04:36:04;5.50;70.20
17827;DHT22;9038;48.208;16.308;2023-02-15T04:38:06;5.50;70.10
17827;DHT22;9038;48.208;16.308;2023-02-15T04:40:08;5.50;70.10
17827;DHT22;9038;48.208;16.308;2023-02-15T04:42:10;5.50;70.40
17827;DHT22;9038;48.208;16.308;2023-02-15T04:44:13;5.50;70.50
17827;DHT22;9038;48.208;16.308;2023-02-15T04:46:15;5.50;70.50
17827;DHT22;9038;48.208;16.308;2023-02-15T04:48:17;5.50;70.30
17827;DHT22;9038;48.208;16.308;2023-02-15T04:50:19;5.50;70.60
17827;DHT22;9038;48.208;16.308;2023-02-15T04:52:20;5.40;70.40
17827;DHT22;9038;48.208;16.308;2023-02-15T04:54:22;5.40;70.30
17827;DHT22;9038;48.208;16.308;2023-02-15T04:56:24;5.40;70.60
17827;DHT22;9038;48.208;16.308;2023-02-15T04:58:26;5.40;70.90
17827;DHT22;9038;48.208;16.308;2023-02-15T05:00:29;5.40;70.80
17827;DHT22;9038;48.208;16.308;2023-02-15T05:02:30;5.40;70.60
17827;DHT22;9038;48.208;16.308;2023-02-15T05:04:32;5.30;70.50
17827;DHT22;9038;48.208;16.308;2023-02-15T05:06:34;5.30;70.50
17827;DHT22;9038;48.208;16.308;2023-02-15T05:08:36;5.40;70.80
17827;DHT22;9038;48.208;16.308;2023-02-15T05:10:37;5.50;70.90
17827;DHT22;9038;48.208;16.308;2023-02-15T05:12:39;5.50;70.60
17827;DHT22;9038;48.208;16.308;2023-02-15T05:14:41;5.50;70.20
17827;DHT22;9038;48.208;16.308;2023-02-15T05:16:44;5.60;69.90
17827;DHT22;9038;48.208;16.308;2023-02-15T05:18:46;5.60;69.60
17827;DHT22;9038;48.208;16.308;2023-02-15T05:20:48;5.60;69.60
17827;DHT22;9038;48.208;16.308;2023-02-15T05:22:52;5.60;69.50
17827;DHT22;9038;48.208;16.308;2023-02-15T05:24:54;5.60;69.50
17827;DHT22;9038;48.208;16.308;2023-02-15T05:27:14;5.60;69.70
17827;DHT22;9038;48.208;16.308;2023-02-15T05:29:33;5.60;69.60
17827;DHT22;9038;48.208;16.308;2023-02-15T05:31:35;5.60;70.10
17827;DHT22;9038;48.208;16.308;2023-02-15T05:33:39;5.50;70.00
17827;DHT22;9038;48.208;16.308;2023-02-15T05:35:41;5.50;70.60
17827;DHT22;9038;48.208;16.308;2023-02-15T05:37:42;5.40;71.00
17827;DHT22;9038;48.208;16.308;2023-02-15T05:39:44;5.30;71.00
17827;DHT22;9038;48.208;16.308;2023-02-15T05:41:46;5.20;71.40
17827;DHT22;9038;48.208;16.308;2023-02-15T05:43:48;5.20;71.80
17827;DHT22;9038;48.208;16.308;2023-02-15T05:45:50;5.30;72.00
17827;DHT22;9038;48.208;16.308;2023-02-15T05:47:52;5.30;71.70
17827;DHT22;9038;48.208;16.308;2023-02-15T05:49:55;5.30;71.40
17827;DHT22;9038;48.208;16.308;2023-02-15T05:51:57;5.20;72.50
17827;DHT22;9038;48.208;16.308;2023-02-15T05:53:59;5.40;71.80
17827;DHT22;9038;48.208;16.308;2023-02-15T05:56:01;5.20;71.90
17827;DHT22;9038;48.208;16.308;2023-02-15T05:58:03;5.10;72.10
17827;DHT22;9038;48.208;16.308;2023-02-15T06:00:05;5.20;72.20
17827;DHT22;9038;48.208;16.308;2023-02-15T06:02:07;5.10;72.20
17827;DHT22;9038;48.208;16.308;2023-02-15T06:04:09;5.00;72.40
17827;DHT22;9038;48.208;16.308;2023-02-15T06:06:12;5.00;72.90
17827;DHT22;9038;48.208;16.308;2023-02-15T06:08:14;4.90;72.80
17827;DHT22;9038;48.208;16.308;2023-02-15T06:10:16;4.90;72.80
17827;DHT22;9038;48.208;16.308;2023-02-15T06:12:17;5.00;72.90
17827;DHT22;9038;48.208;16.308;2023-02-15T06:14:19;5.00;72.80
17827;DHT22;9038;48.208;16.308;2023-02-15T06:16:21;4.90;72.80
17827;DHT22;9038;48.208;16.308;2023-02-15T06:18:23;4.70;73.10
17827;DHT22;9038;48.208;16.308;2023-02-15T06:20:24;4.70;73.60
17827;DHT22;9038;48.208;16.308;2023-02-15T06:22:28;4.70;73.60
17827;DHT22;9038;48.208;16.308;2023-02-15T06:24:29;4.70;72.90
17827;DHT22;9038;48.208;16.308;2023-02-15T06:26:31;4.80;73.00
17827;DHT22;9038;48.208;16.308;2023-02-15T06:28:33;4.90;72.80
17827;DHT22;9038;48.208;16.308;2023-02-15T06:30:35;5.00;72.90
17827;DHT22;9038;48.208;16.308;2023-02-15T06:32:36;5.10;76.00
17827;DHT22;9038;48.208;16.308;2023-02-15T06:34:38;5.20;81.50
17827;DHT22;9038;48.208;16.308;2023-02-15T06:36:40;5.10;75.80
17827;DHT22;9038;48.208;16.308;2023-02-15T06:38:43;5.10;80.00
17827;DHT22;9038;48.208;16.308;2023-02-15T06:40:45;5.30;84.70
17827;DHT22;9038;48.208;16.308;2023-02-15T06:42:46;5.00;72.10
17827;DHT22;9038;48.208;16.308;2023-02-15T06:44:48;5.10;72.10
17827;DHT22;9038;48.208;16.308;2023-02-15T06:46:50;5.00;72.40
17827;DHT22;9038;48.208;16.308;2023-02-15T06:48:52;4.90;72.80
17827;DHT22;9038;48.208;16.308;2023-02-15T06:50:54;4.80;73.30
17827;DHT22;9038;48.208;16.308;2023-02-15T06:52:56;4.80;73.80
17827;DHT22;9038;48.208;16.308;2023-02-15T06:54:59;4.80;73.90
17827;DHT22;9038;48.208;16.308;2023-02-15T06:57:01;4.70;75.10
17827;DHT22;9038;48.208;16.308;2023-02-15T06:59:03;4.60;74.60
17827;DHT22;9038;48.208;16.308;2023-02-15T07:01:05;4.70;74.80
17827;DHT22;9038;48.208;16.308;2023-02-15T07:03:07;4.80;74.70
17827;DHT22;9038;48.208;16.308;2023-02-15T07:05:09;4.80;75.40
17827;DHT22;9038;48.208;16.308;2023-02-15T07:07:11;4.90;76.50
17827;DHT22;9038;48.208;16.308;2023-02-15T07:09:19;5.00;76.50
17827;DHT22;9038;48.208;16.308;2023-02-15T07:11:23;5.10;76.50
17827;DHT22;9038;48.208;16.308;2023-02-15T07:13:42;5.20;76.50
17827;DHT22;9038;48.208;16.308;2023-02-15T07:15:44;5.30;77.10
17827;DHT22;9038;48.208;16.308;2023-02-15T07:17:46;5.40;76.50
17827;DHT22;9038;48.208;16.308;2023-02-15T07:19:48;5.50;76.30
17827;DHT22;9038;48.208;16.308;2023-02-15T07:21:50;5.40;76.60
17827;DHT22;9038;48.208;16.308;2023-02-15T07:23:51;5.40;77.50
17827;DHT22;9038;48.208;16.308;2023-02-15T07:25:56;5.30;77.40
17827;DHT22;9038;48.208;16.308;2023-02-15T07:27:59;5.40;78.00
17827;DHT22;9038;48.208;16.308;2023-02-15T07:30:01;5.50;77.80
17827;DHT22;9038;48.208;16.308;2023-02-15T07:32:03;5.40;77.60
17827;DHT22;9038;48.208;16.308;2023-02-15T07:34:05;5.40;78.50
17827;DHT22;9038;48.208;16.308;2023-02-15T07:36:07;5.40;78.30
17827;DHT22;9038;48.208;16.308;2023-02-15T07:38:09;5.50;78.00
17827;DHT22;9038;48.208;16.308;2023-02-15T07:40:11;5.50;77.70
17827;DHT22;9038;48.208;16.308;2023-02-15T07:42:13;5.60;77.90
17827;DHT22;9038;48.208;16.308;2023-02-15T07:44:16;5.70;76.70
17827;DHT22;9038;48.208;16.308;2023-02-15T07:46:18;5.70;76.20
17827;DHT22;9038;48.208;16.308;2023-02-15T07:48:21;5.70;76.70
17827;DHT22;9038;48.208;16.308;2023-02-15T07:50:22;5.70;76.90
17827;DHT22;9038;48.208;16.308;2023-02-15T07:52:25;5.70;77.10
17827;DHT22;9038;48.208;16.308;2023-02-15T07:54:27;5.70;76.40
17827;DHT22;9038;48.208;16.308;2023-02-15T07:56:29;5.60;76.40
17827;DHT22;9038;48.208;16.308;2023-02-15T07:58:30;5.60;76.40
17827;DHT22;9038;48.208;16.308;2023-02-15T08:00:47;5.60;75.80
17827;DHT22;9038;48.208;16.308;2023-02-15T08:03:01;5.60;75.80
17827;DHT22;9038;48.208;16.308;2023-02-15T08:05:14;5.60;75.40
17827;DHT22;9038;48.208;16.308;2023-02-15T08:07:18;5.60;75.60
17827;DHT22;9038;48.208;16.308;2023-02-15T08:09:20;5.60;75.50
17827;DHT22;9038;48.208;16.308;2023-02-15T08:11:22;5.60;75.70
17827;DHT22;9038;48.208;16.308;2023-02-15T08:13:29;5.60;75.50
17827;DHT22;9038;48.208;16.308;2023-02-15T08:15:31;5.60;74.70
17827;DHT22;9038;48.208;16.308;2023-02-15T08:17:37;5.70;74.80
17827;DHT22;9038;48.208;16.308;2023-02-15T08:19:38;5.70;74.10
17827;DHT22;9038;48.208;16.308;2023-02-15T08:21:41;5.80;73.80
17827;DHT22;9038;48.208;16.308;2023-02-15T08:23:43;5.90;73.20
17827;DHT22;9038;48.208;16.308;2023-02-15T08:25:45;5.80;72.90
17827;DHT22;9038;48.208;16.308;2023-02-15T08:27:47;5.80;73.70
17827;DHT22;9038;48.208;16.308;2023-02-15T08:29:49;5.80;73.00
17827;DHT22;9038;48.208;16.308;2023-02-15T08:31:52;5.70;72.90
17827;DHT22;9038;48.208;16.308;2023-02-15T08:33:56;5.70;72.90
17827;DHT22;9038;48.208;16.308;2023-02-15T08:36:01;5.80;73.50
17827;DHT22;9038;48.208;16.308;2023-02-15T08:38:03;5.90;72.60
17827;DHT22;9038;48.208;16.308;2023-02-15T08:40:05;6.00;72.30
17827;DHT22;9038;48.208;16.308;2023-02-15T08:42:07;6.10;71.40
17827;DHT22;9038;48.208;16.308;2023-02-15T08:44:09;6.10;71.40
17827;DHT22;9038;48.208;16.308;2023-02-15T08:46:11;6.20;70.90
17827;DHT22;9038;48.208;16.308;2023-02-15T08:48:13;6.20;70.20
17827;DHT22;9038;48.208;16.308;2023-02-15T08:50:16;6.10;71.10
17827;DHT22;9038;48.208;16.308;2023-02-15T08:52:18;6.20;70.80
17827;DHT22;9038;48.208;16.308;2023-02-15T08:54:20;6.30;70.30
17827;DHT22;9038;48.208;16.308;2023-02-15T08:56:23;6.40;69.70
17827;DHT22;9038;48.208;16.308;2023-02-15T08:58:25;6.40;69.50
17827;DHT22;9038;48.208;16.308;2023-02-15T09:00:26;6.50;69.70
17827;DHT22;9038;48.208;16.308;2023-02-15T09:02:28;6.50;69.50
17827;DHT22;9038;48.208;16.308;2023-02-15T09:04:30;6.50;69.70
17827;DHT22;9038;48.208;16.308;2023-02-15T09:06:34;6.40;69.30
17827;DHT22;9038;48.208;16.308;2023-02-15T09:08:36;6.30;69.90
17827;DHT22;9038;48.208;16.308;2023-02-15T09:10:38;6.10;70.10
17827;DHT22;9038;48.208;16.308;2023-02-15T09:12:40;6.10;70.80
17827;DHT22;9038;48.208;16.308;2023-02-15T09:14:41;6.20;70.50
17827;DHT22;9038;48.208;16.308;2023-02-15T09:16:44;6.30;70.30
17827;DHT22;9038;48.208;16.308;2023-02-15T09:18:49;6.30;70.20
17827;DHT22;9038;48.208;16.308;2023-02-15T09:20:51;6.30;70.30
17827;DHT22;9038;48.208;16.308;2023-02-15T09:22:54;6.20;70.20
17827;DHT22;9038;48.208;16.308;2023-02-15T09:24:55;6.20;70.10
17827;DHT22;9038;48.208;16.308;2023-02-15T09:26:57;6.30;70.30
17827;DHT22;9038;48.208;16.308;2023-02-15T09:28:59;6.50;70.20
17827;DHT22;9038;48.208;16.308;2023-02-15T09:31:04;6.50;69.60
17827;DHT22;9038;48.208;16.308;2023-02-15T09:33:06;6.50;69.10
17827;DHT22;9038;48.208;16.308;2023-02-15T09:35:08;6.50;69.20
17827;DHT22;9038;48.208;16.308;2023-02-15T09:37:09;6.50;69.30
17827;DHT22;9038;48.208;16.308;2023-02-15T09:39:13;6.50;69.60
17827;DHT22;9038;48.208;16.308;2023-02-15T09:41:23;6.50;69.20
17827;DHT22;9038;48.208;16.308;2023-02-15T09:43:30;6.60;69.10
17827;DHT22;9038;48.208;16.308;2023-02-15T09:45:39;6.80;68.50
17827;DHT22;9038;48.208;16.308;2023-02-15T09:47:56;7.00;68.20
17827;DHT22;9038;48.208;16.308;2023-02-15T09:50:02;7.00;67.90
17827;DHT22;9038;48.208;16.308;2023-02-15T09:52:14;6.90;67.40
17827;DHT22;9038;48.208;16.308;2023-02-15T09:54:27;6.80;67.70
17827;DHT22;9038;48.208;16.308;2023-02-15T09:56:32;6.80;67.80
17827;DHT22;9038;48.208;16.308;2023-02-15T09:58:40;6.80;67.80
17827;DHT22;9038;48.208;16.308;2023-02-15T10:00:46;6.80;67.70
17827;DHT22;9038;48.208;16.308;2023-02-15T10:02:57;6.80;67.80
17827;DHT22;9038;48.208;16.308;2023-02-15T10:05:11;6.80;67.80
17827;DHT22;9038;48.208;16.308;2023-02-15T10:07:17;6.80;67.80
17827;DHT22;9038;48.208;16.308;2023-02-15T10:09:36;6.90;67.80
17827;DHT22;9038;48.208;16.308;2023-02-15T10:11:44;6.90;67.50
17827;DHT22;9038;48.208;16.308;2023-02-15T10:13:53;7.00;67.80
17827;DHT22;9038;48.208;16.308;2023-02-15T10:16:06;7.10;67.00
17827;DHT22;9038;48.208;16.308;2023-02-15T10:18:15;7.30;66.80
17827;DHT22;9038;48.208;16.308;2023-02-15T10:20:23;7.40;65.80
17827;DHT22;9038;48.208;16.308;2023-02-15T10:22:29;7.60;66.50
17827;DHT22;9038;48.208;16.308;2023-02-15T10:24:48;7.90;67.00
17827;DHT22;9038;48.208;16.308;2023-02-15T10:26:55;8.30;66.60
17827;DHT22;9038;48.208;16.308;2023-02-15T10:28:59;8.50;63.30
17827;DHT22;9038;48.208;16.308;2023-02-15T10:31:03;8.50;62.20
17827;DHT22;9038;48.208;16.308;2023-02-15T10:33:10;8.50;62.20
17827;DHT22;9038;48.208;16.308;2023-02-15T10:35:16;8.40;62.70
17827;DHT22;9038;48.208;16.308;2023-02-15T10:37:25;8.30;62.20
17827;DHT22;9038;48.208;16.308;2023-02-15T10:39:33;8.30;63.00
17827;DHT22;9038;48.208;16.308;2023-02-15T10:41:41;8.30;63.10
17827;DHT22;9038;48.208;16.308;2023-02-15T10:43:49;8.50;62.60
17827;DHT22;9038;48.208;16.308;2023-02-15T10:45:58;8.40;62.20
17827;DHT22;9038;48.208;16.308;2023-02-15T10:48:15;8.30;62.20
17827;DHT22;9038;48.208;16.308;2023-02-15T10:50:24;8.00;63.10
17827;DHT22;9038;48.208;16.308;2023-02-15T10:52:29;8.20;63.10
17827;DHT22;9038;48.208;16.308;2023-02-15T10:54:35;8.10;62.30
17827;DHT22;9038;48.208;16.308;2023-02-15T10:56:38;7.90;62.70
17827;DHT22;9038;48.208;16.308;2023-02-15T10:59:05;7.80;63.10
17827;DHT22;9038;48.208;16.308;2023-02-15T11:01:13;7.90;63.50
17827;DHT22;9038;48.208;16.308;2023-02-15T11:03:26;8.00;63.50
17827;DHT22;9038;48.208;16.308;2023-02-15T11:05:35;8.20;63.00
17827;DHT22;9038;48.208;16.308;2023-02-15T11:07:40;8.40;62.10
17827;DHT22;9038;48.208;16.308;2023-02-15T11:09:44;8.40;61.80
17827;DHT22;9038;48.208;16.308;2023-02-15T11:11:47;8.50;61.50
17827;DHT22;9038;48.208;16.308;2023-02-15T11:13:50;8.50;61.20
17827;DHT22;9038;48.208;16.308;2023-02-15T11:15:54;8.30;61.50
17827;DHT22;9038;48.208;16.308;2023-02-15T11:17:58;8.40;61.60
17827;DHT22;9038;48.208;16.308;2023-02-15T11:20:05;8.40;61.40
17827;DHT22;9038;48.208;16.308;2023-02-15T11:22:09;8.50;61.20
17827;DHT22;9038;48.208;16.308;2023-02-15T11:24:12;8.60;61.00
17827;DHT22;9038;48.208;16.308;2023-02-15T11:26:15;8.70;60.70
17827;DHT22;9038;48.208;16.308;2023-02-15T11:28:19;8.90;60.60
17827;DHT22;9038;48.208;16.308;2023-02-15T11:30:23;8.90;60.70
17827;DHT22;9038;48.208;16.308;2023-02-15T11:32:27;8.70;60.40
17827;DHT22;9038;48.208;16.308;2023-02-15T11:34:31;8.70;61.30
17827;DHT22;9038;48.208;16.308;2023-02-15T11:36:34;8.80;61.20
17827;DHT22;9038;48.208;16.308;2023-02-15T11:38:37;8.90;60.60
17827;DHT22;9038;48.208;16.308;2023-02-15T11:40:44;9.10;60.40
17827;DHT22;9038;48.208;16.308;2023-02-15T11:42:47;9.20;59.90
17827;DHT22;9038;48.208;16.308;2023-02-15T11:44:55;9.30;59.20
17827;DHT22;9038;48.208;16.308;2023-02-15T11:46:58;9.30;59.20
17827;DHT22;9038;48.208;16.308;2023-02-15T11:49:02;9.20;59.30
17827;DHT22;9038;48.208;16.308;2023-02-15T11:51:08;9.20;59.40
17827;DHT22;9038;48.208;16.308;2023-02-15T11:53:13;9.20;59.60
17827;DHT22;9038;48.208;16.308;2023-02-15T11:55:18;9.00;59.80
17827;DHT22;9038;48.208;16.308;2023-02-15T11:57:23;8.70;60.60
17827;DHT22;9038;48.208;16.308;2023-02-15T11:59:27;8.40;61.60
17827;DHT22;9038;48.208;16.308;2023-02-15T12:01:32;8.20;62.40
17827;DHT22;9038;48.208;16.308;2023-02-15T12:03:39;8.00;62.80
17827;DHT22;9038;48.208;16.308;2023-02-15T12:05:44;8.00;62.80
17827;DHT22;9038;48.208;16.308;2023-02-15T12:07:48;7.90;63.10
17827;DHT22;9038;48.208;16.308;2023-02-15T12:09:52;8.10;63.00
17827;DHT22;9038;48.208;16.308;2023-02-15T12:14:13;8.80;61.60
17827;DHT22;9038;48.208;16.308;2023-02-15T12:16:16;8.70;60.70
17827;DHT22;9038;48.208;16.308;2023-02-15T12:18:19;8.70;61.20
17827;DHT22;9038;48.208;16.308;2023-02-15T12:20:21;8.70;61.40
17827;DHT22;9038;48.208;16.308;2023-02-15T12:22:28;8.80;61.40
17827;DHT22;9038;48.208;16.308;2023-02-15T12:24:31;9.10;60.80
17827;DHT22;9038;48.208;16.308;2023-02-15T12:26:34;9.40;60.20
17827;DHT22;9038;48.208;16.308;2023-02-15T12:28:37;9.60;59.20
17827;DHT22;9038;48.208;16.308;2023-02-15T12:30:39;9.30;59.20
17827;DHT22;9038;48.208;16.308;2023-02-15T12:32:46;9.00;59.80
17827;DHT22;9038;48.208;16.308;2023-02-15T12:34:48;8.80;60.60
17827;DHT22;9038;48.208;16.308;2023-02-15T12:36:52;8.60;61.40
17827;DHT22;9038;48.208;16.308;2023-02-15T12:39:15;8.50;61.70
17827;DHT22;9038;48.208;16.308;2023-02-15T12:41:22;8.50;61.90
17827;DHT22;9038;48.208;16.308;2023-02-15T12:43:25;8.40;62.40
17827;DHT22;9038;48.208;16.308;2023-02-15T12:45:27;8.40;62.50
17827;DHT22;9038;48.208;16.308;2023-02-15T12:47:29;8.30;63.10
17827;DHT22;9038;48.208;16.308;2023-02-15T12:49:33;8.10;63.80
17827;DHT22;9038;48.208;16.308;2023-02-15T12:51:45;8.10;64.40
17827;DHT22;9038;48.208;16.308;2023-02-15T12:53:47;8.10;64.30
17827;DHT22;9038;48.208;16.308;2023-02-15T12:55:51;8.10;64.30
17827;DHT22;9038;48.208;16.308;2023-02-15T12:58:04;8.20;64.30
17827;DHT22;9038;48.208;16.308;2023-02-15T13:00:23;8.00;64.20
17827;DHT22;9038;48.208;16.308;2023-02-15T13:02:27;7.90;64.80
17827;DHT22;9038;48.208;16.308;2023-02-15T13:04:29;7.70;65.50
17827;DHT22;9038;48.208;16.308;2023-02-15T13:06:32;7.70;65.80
17827;DHT22;9038;48.208;16.308;2023-02-15T13:08:35;7.70;65.90
17827;DHT22;9038;48.208;16.308;2023-02-15T13:10:41;7.80;65.50
17827;DHT22;9038;48.208;16.308;2023-02-15T13:12:47;7.70;65.60
17827;DHT22;9038;48.208;16.308;2023-02-15T13:14:49;7.80;65.70
17827;DHT22;9038;48.208;16.308;2023-02-15T13:16:53;7.80;65.70
17827;DHT22;9038;48.208;16.308;2023-02-15T13:18:57;7.80;65.70
17827;DHT22;9038;48.208;16.308;2023-02-15T13:21:00;7.80;65.70
17827;DHT22;9038;48.208;16.308;2023-02-15T13:23:08;7.90;65.50
17827;DHT22;9038;48.208;16.308;2023-02-15T13:25:17;8.00;65.40
17827;DHT22;9038;48.208;16.308;2023-02-15T13:27:21;8.10;65.00